Portada
METAR-TAF:

METAR-TAF

Aeroports :

Mariehamn, Finlàndia

latitud: 60-07N, longitud: 019-54E, altitud: 6 m

Observació

L'informe es va fer fa 27 minuts, a les 12:50 UTC
Vent 13 kt del Sud/Sud-Est, variant entre Sud-Est i Sud
Temperatura 17°C
Humitat 36%
Pressió 1012 hPa
Visibilitat 10 km o més
sense núvols per sota de 1500 mi sense presència de cumulonimbus.

METAR: EFMA 031250Z AUTO 16013KT 130V190 CAVOK 17/02 Q1012

Hora: 16:17 (13:17 UTC)

Pronòstic

L'informe es va fer fa 24 minuts, a les 12:53 UTC
Pronòstic vàlid del 03 a les 12 UTC al 03 a les 21 UTC
Vent 12 kt del Sud-Est
Visibilitat 10 km o més
sense núvols per sota de 1500 mi sense presència de cumulonimbus.
Evolucionant progressivament
l' 03 a les 19 UTC al 03 a les 21 UTC
Vent 7 kt del Est/Nord-Est

TAF: EFMA 031253Z 0312/0321 13012KT CAVOK BECMG 0319/0321 07007KT

Observacions i pronòstics meteorològics de més de 4000 aeroports (METAR i TAF).

Les estacions disponibles són els punts grocs i vermells al mapa.

Posi el ratolí al punt desitjat per veure el nom de l'estació.

Feu clic per veure les observacions i els pronòstics meteorològics.

Per canviar el mapa: feu clic els botons verds amb una creu de color negre per apropar; al botó verd amb un guió per allunyar la imatge; o en les fletxes verdes per a mapes adjacents.


METAR-TAF: